Time;durP1;ratioP1;P1;durP2;ratioP2;P2;SDS_P1;SDS_P2;PMS_P1;PMS_P2;Temp;Humidity;BMP_temperature;BMP_pressure;BME280_temperature;BME280_humidity;BME280_pressure;Samples;Min_cycle;Max_cycle;Signal;HPM_P1;HPM_P2
2021/01/01 00:01:54;;;;;;;7.95;3.30;;;;;;;;;;4880788;29;20024;-16
2021/01/01 00:04:20;;;;;;;6.93;3.40;;;;;;;;;;4897782;29;20040;-17
2021/01/01 00:06:46;;;;;;;6.75;3.25;;;;;;;;;;4880233;29;20356;-17
2021/01/01 00:09:11;;;;;;;5.40;3.17;;;;;;;;;;4880378;29;20076;-17
2021/01/01 00:11:37;;;;;;;9.40;3.80;;;;;;;;;;4897510;29;20448;-16
2021/01/01 00:14:02;;;;;;;5.97;3.38;;;;;;;;;;4897532;29;20052;-17
2021/01/01 00:16:27;;;;;;;7.97;3.08;;;;;;;;;;4897375;29;20032;-17
2021/01/01 00:18:53;;;;;;;6.20;3.25;;;;;;;;;;4897372;29;20032;-17
2021/01/01 00:21:18;;;;;;;6.40;3.17;;;;;;;;;;4897462;29;20020;-17
2021/01/01 00:23:44;;;;;;;7.50;3.97;;;;;;;;;;4880576;29;20041;-17
2021/01/01 00:26:13;;;;;;;7.88;3.40;;;;;;;;;;4897193;29;20025;-17
2021/01/01 00:28:42;;;;;;;8.38;3.15;;;;;;;;;;4897323;29;20048;-17
2021/01/01 00:31:08;;;;;;;7.55;3.17;;;;;;;;;;4897281;29;20078;-17
2021/01/01 00:33:33;;;;;;;6.10;3.33;;;;;;;;;;4897430;29;20503;-17
2021/01/01 00:36:02;;;;;;;5.22;3.10;;;;;;;;;;4897494;29;20028;-17
2021/01/01 00:38:27;;;;;;;5.07;3.00;;;;;;;;;;4897114;29;20547;-17
2021/01/01 00:40:52;;;;;;;7.45;3.42;;;;;;;;;;4897195;29;20060;-17
2021/01/01 00:43:17;;;;;;;6.03;3.08;;;;;;;;;;4880227;29;20025;-17
2021/01/01 00:45:43;;;;;;;5.00;2.90;;;;;;;;;;4880344;29;20493;-17
2021/01/01 00:48:08;;;;;;;6.90;3.03;;;;;;;;;;4880323;29;20037;-18
2021/01/01 00:50:34;;;;;;;4.25;3.03;;;;;;;;;;4897313;29;20032;-17
2021/01/01 00:52:59;;;;;;;5.70;3.50;;;;;;;;;;4880213;29;20068;-17
2021/01/01 00:55:24;;;;;;;6.75;3.33;;;;;;;;;;4896975;29;20125;-17
2021/01/01 00:57:50;;;;;;;4.80;3.45;;;;;;;;;;4897033;29;20028;-17
2021/01/01 01:00:15;;;;;;;4.30;2.55;;;;;;;;;;4897014;29;20057;-17
2021/01/01 01:02:41;;;;;;;5.82;3.50;;;;;;;;;;4897021;29;20051;-17
2021/01/01 01:05:06;;;;;;;3.88;2.85;;;;;;;;;;4897285;29;20078;-18
2021/01/01 01:07:32;;;;;;;4.75;2.90;;;;;;;;;;4896980;29;20061;-17
2021/01/01 01:09:57;;;;;;;4.15;3.05;;;;;;;;;;4880445;29;20068;-17
2021/01/01 01:12:23;;;;;;;5.38;2.80;;;;;;;;;;4896900;29;20510;-17
2021/01/01 01:14:48;;;;;;;5.72;2.70;;;;;;;;;;4896909;29;20127;-17
2021/01/01 01:17:14;;;;;;;6.18;3.20;;;;;;;;;;4897094;29;20031;-17
2021/01/01 01:19:40;;;;;;;5.72;2.85;;;;;;;;;;4899171;29;20029;-17
2021/01/01 01:22:05;;;;;;;7.60;3.10;;;;;;;;;;4900664;29;20036;-17
2021/01/01 01:24:30;;;;;;;6.18;2.70;;;;;;;;;;4900263;29;20031;-17
2021/01/01 01:26:56;;;;;;;3.72;2.60;;;;;;;;;;4883450;29;20035;-17
2021/01/01 01:29:21;;;;;;;6.30;3.50;;;;;;;;;;4883395;29;20025;-17
2021/01/01 01:31:46;;;;;;;4.10;2.55;;;;;;;;;;4883424;29;20072;-17
2021/01/01 01:34:12;;;;;;;6.20;3.25;;;;;;;;;;4900316;29;20036;-17
2021/01/01 01:36:37;;;;;;;4.45;3.20;;;;;;;;;;4900219;29;20476;-17
2021/01/01 01:39:03;;;;;;;4.13;2.88;;;;;;;;;;4899932;29;20031;-17
2021/01/01 01:41:28;;;;;;;5.13;2.72;;;;;;;;;;4900310;29;20117;-17
2021/01/01 01:43:54;;;;;;;7.25;3.05;;;;;;;;;;4900089;29;20028;-17
2021/01/01 01:46:20;;;;;;;6.00;3.30;;;;;;;;;;4900112;29;20075;-17
2021/01/01 01:48:46;;;;;;;5.38;3.47;;;;;;;;;;4899965;29;20067;-17
2021/01/01 01:51:12;;;;;;;9.43;3.58;;;;;;;;;;4899946;29;20033;-17
2021/01/01 01:53:43;;;;;;;4.40;2.72;;;;;;;;;;4899749;29;20037;-24
2021/01/01 01:56:10;;;;;;;6.35;3.38;;;;;;;;;;4899862;29;20087;-18
2021/01/01 01:58:35;;;;;;;4.18;2.50;;;;;;;;;;4899753;29;20020;-17
2021/01/01 02:01:01;;;;;;;3.05;2.17;;;;;;;;;;4900020;29;20031;-17
2021/01/01 02:03:27;;;;;;;4.53;2.88;;;;;;;;;;4899601;29;20059;-17
2021/01/01 02:05:53;;;;;;;5.93;3.75;;;;;;;;;;4899929;29;20044;-17
2021/01/01 02:08:18;;;;;;;4.97;2.83;;;;;;;;;;4882591;29;20025;-17
2021/01/01 02:10:44;;;;;;;6.63;3.13;;;;;;;;;;4882572;29;20033;-17
2021/01/01 02:13:10;;;;;;;3.28;2.33;;;;;;;;;;4899686;29;20036;-18
2021/01/01 02:15:35;;;;;;;5.45;3.53;;;;;;;;;;4899382;29;20439;-17
2021/01/01 02:18:01;;;;;;;7.63;3.10;;;;;;;;;;4899478;29;20093;-17
2021/01/01 02:20:26;;;;;;;6.82;3.78;;;;;;;;;;4882807;29;20072;-17
2021/01/01 02:22:52;;;;;;;5.25;3.30;;;;;;;;;;4882616;29;20673;-17
2021/01/01 02:25:17;;;;;;;6.40;2.97;;;;;;;;;;4899256;29;20111;-17
2021/01/01 02:27:43;;;;;;;7.32;3.92;;;;;;;;;;4899536;29;20024;-17
2021/01/01 02:30:09;;;;;;;9.45;3.80;;;;;;;;;;4898346;29;20460;-17
2021/01/01 02:32:34;;;;;;;6.50;4.05;;;;;;;;;;4882366;29;20023;-17
2021/01/01 02:35:00;;;;;;;7.45;4.13;;;;;;;;;;4899076;29;20041;-17
2021/01/01 02:37:26;;;;;;;5.88;3.38;;;;;;;;;;4899058;29;20376;-17
2021/01/01 02:39:51;;;;;;;7.35;3.53;;;;;;;;;;4899153;29;20037;-17
2021/01/01 02:42:17;;;;;;;6.47;2.95;;;;;;;;;;4898979;29;20025;-17
2021/01/01 02:44:43;;;;;;;6.18;3.40;;;;;;;;;;4898928;29;20088;-17
2021/01/01 02:47:08;;;;;;;5.35;3.15;;;;;;;;;;4899270;29;20433;-17
2021/01/01 02:49:33;;;;;;;7.20;2.90;;;;;;;;;;4898962;29;20033;-19
2021/01/01 02:52:00;;;;;;;6.20;3.65;;;;;;;;;;4898852;29;20024;-24
2021/01/01 02:54:25;;;;;;;5.07;2.75;;;;;;;;;;4898645;29;20044;-17
2021/01/01 02:56:51;;;;;;;3.88;2.75;;;;;;;;;;4866727;29;20020;-17
2021/01/01 02:59:16;;;;;;;6.55;3.30;;;;;;;;;;4898842;29;20037;-18
2021/01/01 03:01:42;;;;;;;3.60;2.40;;;;;;;;;;4881864;29;20032;-17
2021/01/01 03:04:08;;;;;;;3.85;2.63;;;;;;;;;;4898742;29;20041;-17
2021/01/01 03:06:33;;;;;;;4.00;2.70;;;;;;;;;;4898529;29;20020;-17
2021/01/01 03:09:00;;;;;;;4.28;2.95;;;;;;;;;;4898733;29;20071;-17
2021/01/01 03:11:25;;;;;;;4.30;3.08;;;;;;;;;;4865981;29;20112;-17
2021/01/01 03:13:50;;;;;;;4.07;2.20;;;;;;;;;;4898622;29;20122;-18
2021/01/01 03:16:16;;;;;;;8.25;2.80;;;;;;;;;;4881555;29;20391;-24
2021/01/01 03:18:41;;;;;;;4.65;2.75;;;;;;;;;;4898452;29;20032;-17
2021/01/01 03:21:07;;;;;;;3.47;2.63;;;;;;;;;;4898293;29;20563;-17
2021/01/01 03:23:32;;;;;;;6.00;3.15;;;;;;;;;;4881284;29;20039;-17
2021/01/01 03:25:58;;;;;;;4.25;2.30;;;;;;;;;;4881382;29;20020;-17
2021/01/01 03:28:23;;;;;;;3.58;2.08;;;;;;;;;;4897672;29;20037;-17
2021/01/01 03:30:48;;;;;;;3.33;2.53;;;;;;;;;;4881281;29;20020;-18
2021/01/01 03:33:14;;;;;;;4.57;2.90;;;;;;;;;;4897818;29;20068;-17
2021/01/01 03:35:39;;;;;;;4.90;2.38;;;;;;;;;;4897981;29;20012;-17
2021/01/01 03:38:05;;;;;;;5.38;2.65;;;;;;;;;;4897983;29;20036;-18
2021/01/01 03:40:31;;;;;;;3.38;2.60;;;;;;;;;;4897804;29;20097;-17
2021/01/01 03:42:56;;;;;;;3.88;3.00;;;;;;;;;;4897835;29;20444;-17
2021/01/01 03:45:21;;;;;;;4.68;2.92;;;;;;;;;;4898051;29;20056;-17
2021/01/01 03:47:47;;;;;;;4.65;3.13;;;;;;;;;;4897888;29;20040;-17
2021/01/01 03:50:12;;;;;;;5.78;2.97;;;;;;;;;;4897949;29;20035;-17
2021/01/01 03:52:37;;;;;;;10.13;3.83;;;;;;;;;;4897818;29;20048;-17
2021/01/01 03:55:03;;;;;;;6.22;3.47;;;;;;;;;;4880844;29;20043;-17
2021/01/01 03:57:29;;;;;;;5.55;3.55;;;;;;;;;;4897835;29;20052;-17
2021/01/01 03:59:54;;;;;;;4.57;2.85;;;;;;;;;;4880969;29;20133;-17
2021/01/01 04:02:20;;;;;;;8.20;3.40;;;;;;;;;;4897781;29;20032;-17
2021/01/01 04:04:45;;;;;;;11.82;3.03;;;;;;;;;;4897656;29;20445;-17
2021/01/01 04:07:10;;;;;;;8.48;4.15;;;;;;;;;;4897580;29;20495;-17
2021/01/01 04:09:36;;;;;;;6.10;3.03;;;;;;;;;;4897546;29;20056;-17
2021/01/01 04:12:01;;;;;;;4.95;2.75;;;;;;;;;;4897488;29;20044;-17
2021/01/01 04:14:26;;;;;;;4.60;2.70;;;;;;;;;;4897514;29;20067;-22
2021/01/01 04:16:52;;;;;;;3.90;2.28;;;;;;;;;;4897430;29;20115;-17
2021/01/01 04:19:17;;;;;;;3.40;2.15;;;;;;;;;;4897444;29;20120;-17
2021/01/01 04:21:46;;;;;;;4.75;2.42;;;;;;;;;;4880537;29;20139;-17
2021/01/01 04:24:12;;;;;;;5.30;2.92;;;;;;;;;;4897208;29;20028;-17
2021/01/01 04:26:38;;;;;;;3.10;2.50;;;;;;;;;;4897650;29;20075;-17
2021/01/01 04:29:03;;;;;;;3.63;2.63;;;;;;;;;;4897429;29;20052;-17
2021/01/01 04:31:28;;;;;;;7.18;2.90;;;;;;;;;;4897199;29;20503;-17
2021/01/01 04:33:54;;;;;;;3.78;2.25;;;;;;;;;;4897220;29;20111;-17
2021/01/01 04:36:19;;;;;;;3.88;2.33;;;;;;;;;;4897055;29;20059;-17
2021/01/01 04:38:44;;;;;;;3.08;2.28;;;;;;;;;;4897287;29;20025;-17
2021/01/01 04:41:10;;;;;;;5.18;2.55;;;;;;;;;;4897209;29;20522;-17
2021/01/01 04:43:36;;;;;;;3.10;2.10;;;;;;;;;;4897328;29;20115;-17
2021/01/01 04:46:02;;;;;;;4.18;2.38;;;;;;;;;;4880345;29;20112;-17
2021/01/01 04:48:27;;;;;;;13.70;3.42;;;;;;;;;;4897087;29;20021;-17
2021/01/01 04:50:53;;;;;;;4.05;2.20;;;;;;;;;;4897104;29;20039;-17
2021/01/01 04:53:20;;;;;;;6.47;3.30;;;;;;;;;;4897220;29;20463;-17
2021/01/01 04:55:48;;;;;;;3.25;2.70;;;;;;;;;;4900946;29;20029;-17
2021/01/01 04:58:17;;;;;;;4.70;2.58;;;;;;;;;;4900747;29;20052;-17
2021/01/01 05:00:43;;;;;;;8.68;3.25;;;;;;;;;;4900874;29;20048;-17
2021/01/01 05:03:08;;;;;;;9.75;3.63;;;;;;;;;;4883945;29;20032;-22
2021/01/01 05:05:33;;;;;;;6.72;3.53;;;;;;;;;;4900596;29;20479;-17
2021/01/01 05:07:59;;;;;;;4.63;3.20;;;;;;;;;;4900734;29;20026;-17
2021/01/01 05:10:24;;;;;;;4.43;2.53;;;;;;;;;;4883831;29;20040;-17
2021/01/01 05:12:50;;;;;;;6.78;3.55;;;;;;;;;;4900512;29;20089;-17
2021/01/01 05:15:41;;;;;;;9.48;3.30;;;;;;;;;;4883574;29;20097;-17
2021/01/01 05:18:16;;;;;;;5.32;3.08;;;;;;;;;;4895949;29;20067;-17
2021/01/01 05:20:42;;;;;;;7.65;3.38;;;;;;;;;;4868191;29;20439;-17
2021/01/01 05:23:16;;;;;;;5.22;2.95;;;;;;;;;;4900559;29;20021;-17
2021/01/01 05:25:42;;;;;;;6.72;3.92;;;;;;;;;;4900400;29;20084;-17
2021/01/01 05:28:11;;;;;;;5.15;3.50;;;;;;;;;;4900282;29;20020;-17
2021/01/01 05:30:37;;;;;;;6.78;3.47;;;;;;;;;;4900062;29;20476;-17
2021/01/01 05:33:03;;;;;;;6.68;4.28;;;;;;;;;;4900410;29;20116;-17
2021/01/01 05:35:29;;;;;;;6.18;3.40;;;;;;;;;;4900394;29;20040;-16
2021/01/01 05:37:55;;;;;;;8.45;4.70;;;;;;;;;;4883262;29;20387;-17
2021/01/01 05:40:31;;;;;;;9.35;4.10;;;;;;;;;;4883174;29;20032;-17
2021/01/01 05:43:15;;;;;;;5.63;3.10;;;;;;;;;;4883210;29;20047;-17
2021/01/01 05:45:41;;;;;;;8.80;4.43;;;;;;;;;;4883224;29;20032;-17
2021/01/01 05:48:07;;;;;;;15.20;5.85;;;;;;;;;;4883349;29;20486;-17
2021/01/01 05:50:33;;;;;;;13.68;6.38;;;;;;;;;;4899860;29;20063;-17
2021/01/01 05:53:08;;;;;;;18.20;6.15;;;;;;;;;;4900084;29;20016;-17
2021/01/01 05:55:33;;;;;;;13.00;5.60;;;;;;;;;;4899981;29;20036;-17
2021/01/01 05:57:59;;;;;;;13.05;5.47;;;;;;;;;;4882879;29;20376;-18
2021/01/01 06:00:25;;;;;;;11.52;5.05;;;;;;;;;;4899758;29;20047;-17
2021/01/01 06:02:53;;;;;;;14.00;5.15;;;;;;;;;;4882854;29;20029;-17
2021/01/01 06:05:19;;;;;;;12.45;5.90;;;;;;;;;;4898315;29;20464;-17
2021/01/01 06:07:45;;;;;;;9.10;3.83;;;;;;;;;;4882847;29;20033;-17
2021/01/01 06:10:11;;;;;;;5.43;3.17;;;;;;;;;;4882704;29;20029;-17
2021/01/01 06:12:37;;;;;;;5.43;3.05;;;;;;;;;;4899407;29;20055;-17
2021/01/01 06:15:05;;;;;;;11.52;4.50;;;;;;;;;;4899710;29;20056;-17
2021/01/01 06:17:34;;;;;;;29.63;12.40;;;;;;;;;;4882551;29;20047;-17
2021/01/01 06:20:00;;;;;;;5.82;2.90;;;;;;;;;;4899697;29;20039;-17
2021/01/01 06:22:29;;;;;;;7.85;2.92;;;;;;;;;;4899307;29;20088;-16
2021/01/01 06:24:56;;;;;;;5.80;3.30;;;;;;;;;;4899609;29;20029;-17
2021/01/01 06:27:22;;;;;;;7.82;3.75;;;;;;;;;;4899482;29;20103;-16
2021/01/01 06:29:53;;;;;;;7.30;3.85;;;;;;;;;;4899166;29;20120;-16
2021/01/01 06:32:20;;;;;;;5.75;3.38;;;;;;;;;;4899144;29;20037;-17
2021/01/01 06:34:46;;;;;;;7.47;3.90;;;;;;;;;;4899107;29;20071;-16
2021/01/01 06:37:31;;;;;;;7.53;4.40;;;;;;;;;;4899106;29;20057;-16
2021/01/01 06:39:56;;;;;;;10.15;5.18;;;;;;;;;;4899053;29;20435;-16
2021/01/01 06:42:42;;;;;;;10.43;5.45;;;;;;;;;;4882034;29;20025;-16
2021/01/01 06:45:27;;;;;;;9.80;4.97;;;;;;;;;;4898878;29;20068;-17
2021/01/01 06:47:52;;;;;;;7.70;4.43;;;;;;;;;;4881967;29;20044;-19
2021/01/01 06:50:27;;;;;;;10.70;4.53;;;;;;;;;;4898849;29;20031;-17
2021/01/01 06:53:19;;;;;;;11.73;6.20;;;;;;;;;;4882110;29;20056;-17
2021/01/01 06:55:48;;;;;;;63.17;23.85;;;;;;;;;;4894129;29;20059;-17
2021/01/01 06:58:23;;;;;;;60.80;27.27;;;;;;;;;;4898945;29;20033;-17
2021/01/01 07:00:49;;;;;;;47.15;21.88;;;;;;;;;;4881859;29;20073;-17
2021/01/01 07:05:52;;;;;;;8.85;6.00;;;;;;;;;;4881683;29;20048;-17
2021/01/01 07:08:36;;;;;;;9.90;5.10;;;;;;;;;;4898524;29;20077;-17
2021/01/01 07:11:02;;;;;;;8.68;4.50;;;;;;;;;;4881503;29;20052;-17
2021/01/01 07:13:38;;;;;;;5.68;3.63;;;;;;;;;;4881825;29;20484;-17
2021/01/01 07:16:04;;;;;;;9.23;4.63;;;;;;;;;;4898426;29;20029;-17
2021/01/01 07:18:29;;;;;;;7.70;3.60;;;;;;;;;;4898215;29;20482;-17
2021/01/01 07:21:01;;;;;;;5.63;3.60;;;;;;;;;;4898233;29;20025;-18
2021/01/01 07:23:27;;;;;;;12.75;6.43;;;;;;;;;;4898448;29;20029;-17
2021/01/01 07:25:52;;;;;;;11.73;4.70;;;;;;;;;;4881400;29;20497;-17
2021/01/01 07:28:18;;;;;;;13.43;5.00;;;;;;;;;;4898055;29;20111;-17
2021/01/01 07:30:44;;;;;;;10.00;4.78;;;;;;;;;;4898113;29;20108;-17
2021/01/01 07:33:09;;;;;;;9.68;4.20;;;;;;;;;;4881575;29;20108;-17
2021/01/01 07:35:34;;;;;;;9.02;3.95;;;;;;;;;;4897957;29;20055;-17
2021/01/01 07:38:00;;;;;;;8.25;3.70;;;;;;;;;;4898265;29;20036;-17
2021/01/01 07:40:26;;;;;;;5.78;3.35;;;;;;;;;;4898175;29;20032;-17
2021/01/01 07:42:52;;;;;;;7.53;2.90;;;;;;;;;;4897885;29;20043;-17
2021/01/01 07:45:18;;;;;;;5.30;3.00;;;;;;;;;;4897780;29;20076;-17
2021/01/01 07:47:47;;;;;;;4.07;2.72;;;;;;;;;;4898075;29;20093;-17
2021/01/01 07:50:13;;;;;;;8.50;4.73;;;;;;;;;;4558602;29;10000923;-17
2021/01/01 07:52:38;;;;;;;4.45;2.80;;;;;;;;;;4877709;29;20040;-17
2021/01/01 07:55:05;;;;;;;6.78;4.70;;;;;;;;;;4894629;29;20029;-17
2021/01/01 07:57:49;;;;;;;5.43;4.70;;;;;;;;;;5106837;27;20526;-25
2021/01/01 08:00:16;;;;;;;6.00;5.25;;;;;;;;;;5107168;28;20039;-23
2021/01/01 08:02:42;;;;;;;4.50;3.88;;;;;;;;;;5106674;28;20462;-25
2021/01/01 08:05:13;;;;;;;4.70;2.58;;;;;;;;;;5105472;28;20397;-25
2021/01/01 08:07:38;;;;;;;6.60;3.20;;;;;;;;;;5106746;28;20062;-24
2021/01/01 08:10:04;;;;;;;8.23;4.20;;;;;;;;;;5106672;28;20059;-22
2021/01/01 08:12:29;;;;;;;6.68;3.55;;;;;;;;;;5105333;28;20097;-22
2021/01/01 08:14:55;;;;;;;7.75;5.32;;;;;;;;;;5105164;28;20069;-22
2021/01/01 08:17:22;;;;;;;8.35;4.13;;;;;;;;;;5106815;28;20080;-23
2021/01/01 08:19:47;;;;;;;7.45;3.65;;;;;;;;;;5106749;28;20035;-22
2021/01/01 08:22:14;;;;;;;9.77;6.25;;;;;;;;;;5106358;28;20633;-22
2021/01/01 08:24:41;;;;;;;9.68;3.90;;;;;;;;;;5105989;28;20083;-22
2021/01/01 08:27:07;;;;;;;6.53;4.78;;;;;;;;;;5085593;28;20024;-21
2021/01/01 08:29:33;;;;;;;12.75;4.45;;;;;;;;;;5085974;28;20383;-22
2021/01/01 08:31:59;;;;;;;4.75;3.40;;;;;;;;;;5084925;28;20028;-23
2021/01/01 08:34:24;;;;;;;28.85;15.48;;;;;;;;;;5086387;28;20032;-23
2021/01/01 08:36:50;;;;;;;6.45;4.05;;;;;;;;;;5068010;28;20488;-21
2021/01/01 08:39:16;;;;;;;4.95;2.95;;;;;;;;;;5085723;28;20059;-23
2021/01/01 08:41:45;;;;;;;10.32;3.58;;;;;;;;;;5085815;28;20024;-22
2021/01/01 08:44:11;;;;;;;6.40;4.45;;;;;;;;;;5085884;28;20024;-22
2021/01/01 08:46:37;;;;;;;8.38;3.90;;;;;;;;;;5067360;28;20140;-22
2021/01/01 08:49:17;;;;;;;8.18;5.20;;;;;;;;;;5085753;28;20031;-22
2021/01/01 08:51:42;;;;;;;5.38;3.75;;;;;;;;;;5085178;28;20074;-22
2021/01/01 08:54:09;;;;;;;4.07;3.45;;;;;;;;;;5084198;28;20056;-22
2021/01/01 08:56:35;;;;;;;5.50;3.28;;;;;;;;;;5095647;28;20086;-23
2021/01/01 08:59:07;;;;;;;6.60;3.65;;;;;;;;;;5105807;28;20035;-22
2021/01/01 09:01:33;;;;;;;6.13;2.92;;;;;;;;;;5105514;28;20031;-23
2021/01/01 09:04:02;;;;;;;5.45;2.90;;;;;;;;;;5105979;28;20043;-22
2021/01/01 09:06:27;;;;;;;4.55;2.97;;;;;;;;;;5105677;28;20458;-23
2021/01/01 09:09:09;;;;;;;3.33;2.47;;;;;;;;;;5093397;28;20016;-22
2021/01/01 09:11:35;;;;;;;4.47;2.78;;;;;;;;;;5092962;28;20028;-22
2021/01/01 09:14:00;;;;;;;5.13;2.78;;;;;;;;;;5076870;28;20028;-22
2021/01/01 09:16:25;;;;;;;6.32;2.53;;;;;;;;;;5094981;28;20075;-23
2021/01/01 09:18:51;;;;;;;4.80;2.83;;;;;;;;;;5095390;28;20035;-23
2021/01/01 09:21:18;;;;;;;4.32;2.80;;;;;;;;;;5077026;28;20038;-22
2021/01/01 09:23:50;;;;;;;5.13;3.25;;;;;;;;;;5095158;28;20021;-22
2021/01/01 09:26:25;;;;;;;6.93;3.58;;;;;;;;;;5095155;28;20474;-23
2021/01/01 09:29:00;;;;;;;9.82;4.45;;;;;;;;;;5095222;28;20482;-23
2021/01/01 09:31:25;;;;;;;9.40;4.65;;;;;;;;;;5076872;28;20032;-23
2021/01/01 09:34:01;;;;;;;7.80;3.67;;;;;;;;;;5095002;28;20008;-23
2021/01/01 09:36:26;;;;;;;4.65;3.70;;;;;;;;;;5094783;28;20028;-23
2021/01/01 09:38:52;;;;;;;7.93;3.45;;;;;;;;;;5094878;28;20016;-22
2021/01/01 09:41:17;;;;;;;7.22;3.55;;;;;;;;;;5076782;28;20600;-23
2021/01/01 09:43:43;;;;;;;4.57;3.13;;;;;;;;;;5094942;28;20035;-22
2021/01/01 09:46:09;;;;;;;7.65;4.05;;;;;;;;;;5094790;28;20484;-23
2021/01/01 09:48:34;;;;;;;5.07;3.60;;;;;;;;;;5094491;28;20032;-23
2021/01/01 09:50:59;;;;;;;5.63;3.60;;;;;;;;;;5076395;28;20115;-22
2021/01/01 09:53:25;;;;;;;9.80;4.93;;;;;;;;;;5094546;28;20020;-23
2021/01/01 09:55:50;;;;;;;9.00;5.97;;;;;;;;;;5094507;28;20066;-24
2021/01/01 09:58:16;;;;;;;9.60;5.13;;;;;;;;;;5094690;28;20374;-23
2021/01/01 10:00:41;;;;;;;7.00;4.70;;;;;;;;;;5094604;28;20028;-23
2021/01/01 10:03:07;;;;;;;7.95;3.45;;;;;;;;;;5059638;28;20028;-23
2021/01/01 10:05:32;;;;;;;7.25;3.38;;;;;;;;;;5094222;28;20028;-23
2021/01/01 10:07:57;;;;;;;4.53;3.33;;;;;;;;;;5094179;28;20024;-23
2021/01/01 10:10:23;;;;;;;6.13;3.60;;;;;;;;;;5094243;28;20035;-23
2021/01/01 10:12:48;;;;;;;6.10;3.63;;;;;;;;;;5094189;28;20024;-23
2021/01/01 10:15:14;;;;;;;5.57;2.95;;;;;;;;;;5094212;28;20044;-22
2021/01/01 10:17:39;;;;;;;5.72;4.20;;;;;;;;;;5094216;28;20035;-22
2021/01/01 10:20:05;;;;;;;6.10;4.13;;;;;;;;;;5093167;28;20405;-22
2021/01/01 10:22:30;;;;;;;6.68;4.72;;;;;;;;;;5093984;28;20024;-25
2021/01/01 10:24:55;;;;;;;4.97;3.22;;;;;;;;;;5094002;28;20090;-23
2021/01/01 10:27:21;;;;;;;5.57;3.13;;;;;;;;;;5093799;28;20016;-23
2021/01/01 10:29:46;;;;;;;5.35;3.05;;;;;;;;;;5093973;28;20032;-23
2021/01/01 10:32:12;;;;;;;3.97;2.97;;;;;;;;;;5093832;28;20017;-23
2021/01/01 10:34:41;;;;;;;4.32;2.83;;;;;;;;;;5093795;28;20043;-23
2021/01/01 10:37:07;;;;;;;4.50;3.05;;;;;;;;;;5093955;28;20032;-22
2021/01/01 10:39:32;;;;;;;5.07;3.22;;;;;;;;;;5093577;28;20031;-23
2021/01/01 10:41:58;;;;;;;5.78;3.55;;;;;;;;;;5093677;28;20047;-23
2021/01/01 10:44:23;;;;;;;7.70;3.33;;;;;;;;;;5093551;28;20020;-23
2021/01/01 10:46:52;;;;;;;3.50;2.28;;;;;;;;;;5075341;28;20111;-22
2021/01/01 10:49:18;;;;;;;2.22;2.00;;;;;;;;;;5093488;28;20028;-23
2021/01/01 10:51:43;;;;;;;4.35;2.75;;;;;;;;;;5093492;28;20480;-29
2021/01/01 10:54:09;;;;;;;5.65;2.72;;;;;;;;;;5093367;28;20028;-23
2021/01/01 10:56:34;;;;;;;3.58;2.38;;;;;;;;;;5074886;28;20051;-23
2021/01/01 10:58:59;;;;;;;3.35;2.20;;;;;;;;;;5093644;28;20028;-23
2021/01/01 11:01:25;;;;;;;2.72;2.25;;;;;;;;;;5093185;28;20086;-22
2021/01/01 11:03:51;;;;;;;3.35;2.60;;;;;;;;;;5075284;28;20032;-22
2021/01/01 11:06:17;;;;;;;2.30;1.90;;;;;;;;;;5093528;28;20026;-22
2021/01/01 11:08:42;;;;;;;5.72;2.67;;;;;;;;;;5092978;28;20024;-23
2021/01/01 11:11:10;;;;;;;3.75;2.38;;;;;;;;;;5093445;28;20074;-23
2021/01/01 11:13:38;;;;;;;5.00;3.22;;;;;;;;;;5092988;28;20470;-23
2021/01/01 12:26:58;;;;;;;4.15;2.75;;;;;;;;;;5092231;28;20619;-23
2021/01/01 12:29:25;;;;;;;6.32;4.38;;;;;;;;;;5092395;28;20099;-22
2021/01/01 12:31:50;;;;;;;5.90;4.18;;;;;;;;;;5074068;28;20036;-24
2021/01/01 12:34:15;;;;;;;11.95;6.05;;;;;;;;;;5073928;28;20012;-22
2021/01/01 12:36:41;;;;;;;5.65;3.45;;;;;;;;;;5057231;28;20055;-21
2021/01/01 12:39:06;;;;;;;7.25;3.25;;;;;;;;;;5092100;28;20354;-22
2021/01/01 12:41:32;;;;;;;3.40;2.70;;;;;;;;;;5091985;28;20202;-22
2021/01/01 12:43:57;;;;;;;5.72;2.63;;;;;;;;;;5094859;28;20020;-22
2021/01/01 12:46:23;;;;;;;3.90;2.65;;;;;;;;;;5096091;28;20153;-22
2021/01/01 12:48:48;;;;;;;6.63;3.80;;;;;;;;;;5095794;28;20016;-22
2021/01/01 12:51:13;;;;;;;5.30;2.85;;;;;;;;;;5077700;28;20031;-22
2021/01/01 12:53:39;;;;;;;5.05;3.20;;;;;;;;;;5095974;28;20396;-22
2021/01/01 12:56:06;;;;;;;3.60;2.63;;;;;;;;;;5077215;28;20409;-22
2021/01/01 12:58:31;;;;;;;4.32;2.90;;;;;;;;;;5077380;28;20115;-22
2021/01/01 13:00:57;;;;;;;5.95;2.70;;;;;;;;;;5095923;28;20157;-22
2021/01/01 13:03:22;;;;;;;4.22;2.22;;;;;;;;;;5095393;28;20051;-22
2021/01/01 13:05:47;;;;;;;8.07;3.42;;;;;;;;;;5077252;28;20441;-22
2021/01/01 13:08:13;;;;;;;6.07;3.35;;;;;;;;;;5095437;28;20020;-22
2021/01/01 13:10:38;;;;;;;7.22;3.28;;;;;;;;;;5095283;28;20028;-22
2021/01/01 13:13:04;;;;;;;4.75;2.30;;;;;;;;;;5095474;28;20013;-23
2021/01/01 13:15:29;;;;;;;4.03;2.92;;;;;;;;;;5095434;28;20107;-23
2021/01/01 13:17:54;;;;;;;3.08;2.50;;;;;;;;;;5095452;28;20401;-23
2021/01/01 13:20:20;;;;;;;5.03;2.25;;;;;;;;;;5077234;28;20025;-23
2021/01/01 13:22:45;;;;;;;2.72;2.30;;;;;;;;;;5060374;28;20027;-21
2021/01/01 13:25:15;;;;;;;3.33;2.55;;;;;;;;;;5077307;28;20035;-22
2021/01/01 13:27:40;;;;;;;3.50;1.77;;;;;;;;;;5095287;28;20375;-22
2021/01/01 13:30:06;;;;;;;4.13;2.88;;;;;;;;;;5076857;28;20097;-23
2021/01/01 13:32:31;;;;;;;3.65;2.10;;;;;;;;;;5095177;28;20055;-24
2021/01/01 13:34:57;;;;;;;3.85;2.65;;;;;;;;;;5076969;28;20056;-23
2021/01/01 13:37:22;;;;;;;4.78;2.58;;;;;;;;;;5094676;28;20520;-23
2021/01/01 13:39:47;;;;;;;4.57;2.35;;;;;;;;;;5076657;28;20032;-22
2021/01/01 13:42:17;;;;;;;4.85;2.17;;;;;;;;;;5094861;28;20028;-22
2021/01/01 13:44:42;;;;;;;5.10;2.53;;;;;;;;;;5094619;28;20028;-21
2021/01/01 13:47:07;;;;;;;2.75;1.98;;;;;;;;;;5076600;28;20026;-22
2021/01/01 13:49:33;;;;;;;3.05;1.88;;;;;;;;;;5094828;28;20116;-22
2021/01/01 13:52:00;;;;;;;3.00;2.00;;;;;;;;;;5094655;28;20047;-22
2021/01/01 13:54:25;;;;;;;2.50;1.73;;;;;;;;;;5094459;28;20103;-21
2021/01/01 13:56:51;;;;;;;2.80;2.00;;;;;;;;;;5076187;28;20135;-22
2021/01/01 13:59:17;;;;;;;4.13;2.40;;;;;;;;;;5076196;28;20024;-22
2021/01/01 14:01:42;;;;;;;3.38;2.55;;;;;;;;;;5094333;28;20420;-22
2021/01/01 14:04:08;;;;;;;4.97;2.70;;;;;;;;;;5076364;28;20043;-22
2021/01/01 14:06:33;;;;;;;4.20;2.35;;;;;;;;;;5094178;28;20012;-22
2021/01/01 14:08:59;;;;;;;6.50;2.75;;;;;;;;;;5094301;28;20024;-22
2021/01/01 14:11:25;;;;;;;2.88;2.20;;;;;;;;;;5094268;28;20454;-22
2021/01/01 14:13:50;;;;;;;3.42;2.10;;;;;;;;;;5094143;28;20028;-22
2021/01/01 14:16:16;;;;;;;3.30;1.90;;;;;;;;;;5094202;28;20028;-22
2021/01/01 14:18:41;;;;;;;5.00;1.63;;;;;;;;;;5059251;28;20028;-22
2021/01/01 14:21:07;;;;;;;6.32;2.42;;;;;;;;;;5094221;28;20185;-22
2021/01/01 14:23:33;;;;;;;4.40;2.75;;;;;;;;;;5094006;28;20123;-22
2021/01/01 14:25:58;;;;;;;2.60;2.13;;;;;;;;;;5093886;28;20024;-22
2021/01/01 14:28:23;;;;;;;3.50;2.67;;;;;;;;;;5093841;28;20093;-22
2021/01/01 14:30:49;;;;;;;3.63;1.90;;;;;;;;;;5075845;28;20024;-22
2021/01/01 14:33:14;;;;;;;5.38;2.33;;;;;;;;;;5093818;28;20085;-23
2021/01/01 14:35:40;;;;;;;4.45;2.83;;;;;;;;;;5093844;28;20020;-22
2021/01/01 14:38:05;;;;;;;6.63;3.20;;;;;;;;;;5093938;28;20496;-22
2021/01/01 14:40:31;;;;;;;3.05;2.15;;;;;;;;;;5093685;28;20462;-22
2021/01/01 14:42:56;;;;;;;4.03;2.58;;;;;;;;;;5093637;28;20028;-22
2021/01/01 14:45:22;;;;;;;5.30;2.25;;;;;;;;;;5093549;28;20016;-22
2021/01/01 14:47:47;;;;;;;4.05;3.53;;;;;;;;;;5075421;28;20121;-22
2021/01/01 14:50:13;;;;;;;3.17;2.50;;;;;;;;;;5093365;28;20038;-22
2021/01/01 14:52:38;;;;;;;2.97;2.47;;;;;;;;;;5093476;28;20028;-22
2021/01/01 14:55:05;;;;;;;3.67;2.78;;;;;;;;;;5093444;28;20513;-22
2021/01/01 14:57:30;;;;;;;10.02;6.00;;;;;;;;;;5092994;28;20059;-22
2021/01/01 14:59:56;;;;;;;3.22;2.63;;;;;;;;;;5093403;28;20035;-23
2021/01/01 15:02:21;;;;;;;2.97;2.33;;;;;;;;;;5093549;28;20028;-22
2021/01/01 15:04:46;;;;;;;3.90;2.83;;;;;;;;;;5093108;28;20016;-23
2021/01/01 15:07:12;;;;;;;5.80;3.33;;;;;;;;;;5093001;28;20032;-25
2021/01/01 15:09:37;;;;;;;5.15;2.65;;;;;;;;;;5074794;28;20016;-22
2021/01/01 15:12:03;;;;;;;3.67;2.50;;;;;;;;;;5075006;28;20386;-21
2021/01/01 15:14:28;;;;;;;7.00;2.40;;;;;;;;;;5093040;28;20489;-22
2021/01/01 15:16:54;;;;;;;3.58;2.63;;;;;;;;;;5092813;28;20071;-22
2021/01/01 15:19:19;;;;;;;4.38;2.90;;;;;;;;;;5074806;28;20020;-22
2021/01/01 15:21:44;;;;;;;3.45;2.30;;;;;;;;;;5093153;28;20042;-22
2021/01/01 15:24:11;;;;;;;4.20;2.75;;;;;;;;;;5092889;28;20012;-22
2021/01/01 15:26:40;;;;;;;4.00;2.85;;;;;;;;;;5092773;28;20032;-22
2021/01/01 15:29:06;;;;;;;5.07;3.70;;;;;;;;;;5092787;28;20373;-22
2021/01/01 15:31:31;;;;;;;4.68;2.50;;;;;;;;;;5074467;28;20032;-22
2021/01/01 15:33:56;;;;;;;4.80;2.80;;;;;;;;;;5092843;28;20082;-22
2021/01/01 15:36:22;;;;;;;5.45;2.53;;;;;;;;;;5092670;28;20077;-22
2021/01/01 15:38:47;;;;;;;5.35;3.78;;;;;;;;;;5074353;28;20052;-22
2021/01/01 15:41:16;;;;;;;4.68;2.63;;;;;;;;;;5074638;28;20067;-23
2021/01/01 15:43:42;;;;;;;4.38;3.33;;;;;;;;;;5092610;28;20134;-22
2021/01/01 15:46:08;;;;;;;5.30;2.75;;;;;;;;;;5074653;28;20036;-22
2021/01/01 15:48:33;;;;;;;3.97;2.40;;;;;;;;;;5074404;28;20099;-23
2021/01/01 15:50:58;;;;;;;6.55;2.88;;;;;;;;;;5092804;28;20077;-23